Lihue, HI (96766)

8:11 AM HST on August 31, 2015 (GMT -1000)
Lihue | | Change Station
CLOSE
Current Station
Personal Weather Station
Location: Lihue, HI
Elevation: 342 ft
Nearby Weather Stations
Active Advisory: High Surf Advisory Active Notice: Record Report

Elev 342 ft 21.97 °N, 159.40 °W | Updated 15 minutes ago

Thunderstorms and Rain
Thunderstorm Rain Mist
76.6 °F
Feels Like 76 °F
N
4.0
Wind Variable Wind from NNE
Gusts 8.7 mph

Today
High -- | Low -- °F
--% Chance of Precip.
Yesterday
High -- | Low -- °F
Precip. -- in
6:20 AM 6:54 PM
Waning Gibbous, 94% visible
Pressure 29.94 in
Visibility 3.0 miles
Clouds Overcast 1700 ft
Heat Index 76 °F
Dew Point 77 °F
Humidity 100%
Rainfall Not available.
Snow Depth Not available.
UV 1 out of 12
Pollen Not available.
Air Quality Not available.
Flu Activity Not available.
SPECI PHLI 311803Z 03013KT 3SM TSRA BR OVC017 25/25 A2994 RMK AO2 TSB03 P0006 $
Pressure 29.94 in
Visibility 3.0 miles
Clouds Overcast 1700 ft
Heat Index 76 °F
Dew Point 77 °F
Humidity 100%
Rainfall Not available.
Snow Depth Not available.
UV 1 out of 12
Pollen Not available.
Air Quality Not available.
Flu Activity Not available.
SPECI PHLI 311803Z 03013KT 3SM TSRA BR OVC017 25/25 A2994 RMK AO2 TSB03 P0006 $

10-Day Weather Forecast

×

Almanac

Astronomy

Aug. 31, 2015 Rise Set
Actual Time
Civil Twilight
Nautical Twilight
Astronomical Twilight
Moon
Length of Visible Light
Length of Day
Tomorrow will be .
, % of the Moon is Illuminated

Today's Extremes

State Highs State Lows

Community

WunderPhotos

Upload Photos

1,851,327 photos uploaded!

WunderBlogs® & News

Nearby

Air Quality

  Air Quality AQ Index Pollutant
Not available.

Snow Depth

Station Depth Elevation

Earthquake Activity

City Distance Mag. Time & Date
Minimum magnitude displayed is 2.5.

Coastal Water Temperatures

Place Temperature

Stations

Nearby Weather Stations

Station Location Temp. Windchill Dew Point Humidity Wind Precip. Elev Updated Type
                   
High Surf Advisory
Statement as of 3:14 AM HST on August 31, 2015

... High surf advisory remains in effect until 6 PM HST
Wednesday...

A high surf advisory remains in effect until 6 PM HST Wednesday.

* Surf... along east facing shores... increasing to 6 to 10 feet
later today... then rising to 8 to 12 feet Tuesday.

* Impacts... moderate... expect strong breaking waves... shore
break... and strong longshore and rip currents making swimming
difficult and dangerous.

Precautionary/preparedness actions...

Beachgoers... swimmers... and surfers should heed all advice given
by ocean safety officials and exercise caution. Boaters should
expect recreational surfers and body boarders utilizing Harbor
channels to access surfing areas.